createdAt,value
2022-11-29T00:02:59.044Z,61.50
2022-11-29T00:06:29.171Z,62.60
2022-11-29T00:09:55.831Z,63.80
2022-11-29T00:13:22.499Z,66.70
2022-11-29T00:16:53.415Z,60.10
2022-11-29T00:20:20.189Z,55.40
2022-11-29T00:23:47.309Z,66.80
2022-11-29T00:27:14.129Z,62.00
2022-11-29T00:30:41.212Z,61.90
2022-11-29T00:34:08.925Z,63.60
2022-11-29T00:37:35.880Z,59.90
2022-11-29T00:41:02.588Z,63.50
2022-11-29T00:44:29.633Z,58.00
2022-11-29T00:47:56.282Z,56.40
2022-11-29T00:51:22.931Z,58.50
2022-11-29T00:54:49.988Z,53.70
2022-11-29T00:58:17.012Z,63.10
2022-11-29T01:01:44.275Z,55.40
2022-11-29T01:05:11.541Z,58.40
2022-11-29T01:08:38.957Z,57.80
2022-11-29T01:12:05.952Z,58.80
2022-11-29T01:15:32.974Z,53.30
2022-11-29T01:19:00.476Z,55.40
2022-11-29T01:22:27.575Z,53.10
2022-11-29T01:26:01.445Z,60.70
2022-11-29T01:29:28.331Z,51.00
2022-11-29T01:32:55.050Z,52.60
2022-11-29T01:36:21.792Z,58.20
2022-11-29T01:39:48.467Z,56.30
2022-11-29T01:43:19.644Z,56.40
2022-11-29T01:46:48.316Z,56.10
2022-11-29T01:50:15.653Z,60.20
2022-11-29T01:53:42.779Z,65.20
2022-11-29T01:57:10.957Z,62.90
2022-11-29T02:00:38.280Z,65.10
2022-11-29T02:04:06.606Z,61.00
2022-11-29T02:07:33.606Z,58.20
2022-11-29T02:11:30.174Z,64.30
2022-11-29T02:15:25.985Z,54.80
2022-11-29T02:19:04.252Z,63.70
2022-11-29T02:22:34.444Z,60.50
2022-11-29T02:26:16.495Z,60.30
2022-11-29T02:30:14.397Z,59.70
2022-11-29T02:34:12.021Z,64.70
2022-11-29T02:37:58.309Z,60.50
2022-11-29T02:41:39.452Z,62.70
2022-11-29T02:45:11.397Z,58.90
2022-11-29T02:48:54.238Z,55.20
2022-11-29T02:52:27.388Z,62.90
2022-11-29T02:56:04.439Z,59.50
2022-11-29T02:59:42.615Z,59.20
2022-11-29T03:03:16.321Z,67.30
2022-11-29T03:06:51.572Z,66.80
2022-11-29T03:10:30.760Z,66.10
2022-11-29T03:14:13.019Z,61.70
2022-11-29T03:17:55.101Z,70.90
2022-11-29T03:21:35.956Z,63.20
2022-11-29T03:25:09.074Z,63.90
2022-11-29T03:28:40.499Z,76.10
2022-11-29T03:32:13.898Z,70.60
2022-11-29T03:35:47.952Z,69.50
2022-11-29T03:39:31.638Z,70.80
2022-11-29T03:43:03.141Z,64.90
2022-11-29T03:46:36.105Z,62.80
2022-11-29T03:50:08.575Z,67.00
2022-11-29T03:53:43.040Z,64.30
2022-11-29T03:57:11.047Z,61.70
2022-11-29T04:00:57.897Z,66.40
2022-11-29T04:04:56.069Z,65.00
2022-11-29T04:08:53.989Z,64.70
2022-11-29T04:13:07.102Z,69.60
2022-11-29T04:17:00.352Z,62.80
2022-11-29T04:21:06.356Z,62.40
2022-11-29T04:24:51.441Z,59.50
2022-11-29T04:28:52.670Z,62.20
2022-11-29T04:32:49.686Z,64.80
2022-11-29T04:36:39.748Z,61.40
2022-11-29T04:40:28.275Z,66.90
2022-11-29T04:44:13.753Z,61.50
2022-11-29T04:47:58.815Z,73.20
2022-11-29T04:51:42.261Z,66.20
2022-11-29T04:55:29.277Z,68.20
2022-11-29T04:59:05.282Z,68.50
2022-11-29T05:02:37.438Z,66.70
2022-11-29T05:20:02.071Z,64.70
2022-11-29T05:23:43.798Z,57.50
2022-11-29T05:27:17.810Z,61.50
2022-11-29T05:31:04.339Z,64.00
2022-11-29T05:34:45.094Z,64.70
2022-11-29T05:38:21.656Z,58.20
2022-11-29T05:42:05.242Z,62.90
2022-11-29T05:45:36.705Z,62.50
2022-11-29T05:49:18.695Z,59.80
2022-11-29T05:52:55.976Z,69.20
2022-11-29T05:56:32.981Z,78.60
2022-11-29T06:00:03.566Z,76.50
2022-11-29T06:03:44.821Z,63.80
2022-11-29T06:07:19.019Z,65.00
2022-11-29T06:10:57.680Z,65.20
2022-11-29T06:14:44.801Z,68.70
2022-11-29T06:18:34.311Z,70.90
2022-11-29T06:22:15.058Z,68.80
2022-11-29T06:26:04.059Z,71.00
2022-11-29T06:29:43.370Z,69.60
2022-11-29T06:33:18.084Z,70.40
2022-11-29T06:36:49.633Z,74.60
2022-11-29T06:40:18.420Z,83.70
2022-11-29T06:43:46.264Z,77.10
2022-11-29T06:47:20.397Z,77.00
2022-11-29T06:50:55.246Z,82.00
2022-11-29T06:54:35.671Z,69.20
2022-11-29T06:58:13.553Z,78.50
2022-11-29T07:01:47.002Z,77.90
2022-11-29T07:05:21.509Z,75.00
2022-11-29T07:08:50.312Z,83.20
2022-11-29T07:12:18.857Z,67.40
2022-11-29T07:16:01.098Z,83.60
2022-11-29T07:19:36.973Z,85.10
2022-11-29T07:23:11.968Z,91.50
2022-11-29T07:26:47.600Z,88.40
2022-11-29T07:30:19.604Z,87.90
2022-11-29T07:33:59.708Z,84.50
2022-11-29T07:37:37.170Z,88.30
2022-11-29T07:41:11.374Z,89.90
2022-11-29T07:44:47.470Z,96.50
2022-11-29T07:48:17.436Z,89.00
2022-11-29T07:51:44.561Z,85.80
2022-11-29T07:55:18.624Z,92.80
2022-11-29T07:58:46.101Z,80.00
2022-11-29T08:02:14.415Z,81.30
2022-11-29T08:05:41.779Z,86.20
2022-11-29T08:09:08.834Z,93.60
2022-11-29T08:12:35.718Z,89.30
2022-11-29T08:16:02.531Z,93.10
2022-11-29T08:19:29.429Z,88.40
2022-11-29T08:23:00.661Z,87.60
2022-11-29T08:26:31.689Z,86.00
2022-11-29T08:29:59.035Z,90.20
2022-11-29T08:33:26.138Z,92.00
2022-11-29T08:36:55.597Z,79.80
2022-11-29T08:40:23.970Z,93.70
2022-11-29T08:43:50.982Z,87.10
2022-11-29T08:47:35.558Z,94.60
2022-11-29T08:51:02.894Z,100.90
2022-11-29T08:54:30.007Z,84.20
2022-11-29T08:58:04.433Z,93.90
2022-11-29T09:01:31.333Z,98.50
2022-11-29T09:04:58.386Z,100.60
2022-11-29T09:08:25.262Z,102.80
2022-11-29T09:11:52.020Z,98.20
2022-11-29T09:15:19.813Z,95.50
2022-11-29T09:18:51.954Z,98.20
2022-11-29T09:22:19.092Z,102.90
2022-11-29T09:25:50.747Z,92.80
2022-11-29T09:29:18.741Z,102.90
2022-11-29T09:32:46.642Z,100.40
2022-11-29T09:36:14.612Z,114.90
2022-11-29T09:39:42.092Z,98.20
2022-11-29T09:43:18.883Z,103.40
2022-11-29T09:46:58.850Z,109.80
2022-11-29T09:50:34.324Z,104.70
2022-11-29T09:54:15.898Z,103.90
2022-11-29T09:57:44.896Z,112.60
2022-11-29T10:01:19.926Z,108.90
2022-11-29T10:04:49.780Z,101.70
2022-11-29T10:12:03.425Z,97.60
2022-11-29T10:15:33.171Z,99.70
2022-11-29T10:19:05.913Z,99.80
2022-11-29T10:22:40.818Z,103.50
2022-11-29T10:26:08.448Z,108.00
2022-11-29T10:29:35.821Z,98.60
2022-11-29T10:33:02.890Z,103.70
2022-11-29T10:36:35.433Z,90.60
2022-11-29T10:40:08.059Z,98.00
2022-11-29T10:43:37.474Z,91.50
2022-11-29T10:47:10.653Z,96.40
2022-11-29T10:50:41.833Z,93.70
2022-11-29T10:54:29.935Z,103.80
2022-11-29T10:58:28.739Z,104.40
2022-11-29T11:01:56.813Z,97.60
2022-11-29T11:05:28.507Z,81.80
2022-11-29T11:08:57.384Z,96.70
2022-11-29T11:12:27.899Z,103.60
2022-11-29T11:15:59.512Z,97.70
2022-11-29T11:19:34.523Z,104.00
2022-11-29T11:23:04.526Z,92.90
2022-11-29T11:26:45.366Z,103.70
2022-11-29T11:30:22.711Z,101.60
2022-11-29T11:33:49.444Z,104.50
2022-11-29T11:37:24.633Z,93.80
2022-11-29T11:41:01.501Z,112.50
2022-11-29T11:44:51.995Z,96.70
2022-11-29T11:48:20.378Z,104.00
2022-11-29T11:51:47.397Z,96.30
2022-11-29T11:55:33.544Z,96.70
2022-11-29T11:59:00.601Z,93.80
2022-11-29T12:02:37.561Z,96.40
2022-11-29T12:06:22.018Z,92.60
2022-11-29T12:09:54.142Z,100.70
2022-11-29T12:13:26.445Z,94.90
2022-11-29T12:17:02.256Z,91.40
2022-11-29T12:20:33.819Z,92.20
2022-11-29T12:24:05.073Z,96.10
2022-11-29T12:27:33.164Z,100.30
2022-11-29T12:31:08.934Z,90.40
2022-11-29T12:34:49.848Z,94.50
2022-11-29T12:38:34.382Z,102.00
2022-11-29T12:42:10.531Z,94.40
2022-11-29T12:45:49.189Z,92.80
2022-11-29T12:49:23.000Z,97.90
2022-11-29T12:53:01.767Z,99.00
2022-11-29T12:56:34.851Z,98.00
2022-11-29T13:00:13.127Z,94.50
2022-11-29T13:03:45.885Z,94.20
2022-11-29T13:07:22.310Z,99.60
2022-11-29T13:11:07.159Z,92.30
2022-11-29T13:14:55.341Z,95.10
2022-11-29T13:18:29.199Z,91.40
2022-11-29T13:22:07.363Z,94.50
2022-11-29T13:25:38.369Z,104.60
2022-11-29T13:29:07.455Z,108.60
2022-11-29T13:32:41.248Z,111.50
2022-11-29T13:36:16.354Z,106.70
2022-11-29T13:40:00.555Z,110.30
2022-11-29T13:43:34.130Z,160.20
2022-11-29T13:47:08.187Z,127.10
2022-11-29T13:50:44.090Z,107.30
2022-11-29T13:54:31.973Z,122.40
2022-11-29T13:58:20.175Z,105.00
2022-11-29T14:01:50.336Z,102.70
2022-11-29T14:05:27.984Z,94.30
2022-11-29T14:09:34.416Z,101.40
2022-11-29T14:13:01.986Z,89.60
2022-11-29T14:16:36.917Z,109.00
2022-11-29T14:20:36.448Z,102.70
2022-11-29T14:28:23.185Z,107.70
2022-11-29T14:35:24.137Z,130.80
2022-11-29T14:38:59.757Z,125.30
2022-11-29T14:42:28.559Z,138.70
2022-11-29T14:46:10.112Z,88.10
2022-11-29T14:49:44.014Z,122.70
2022-11-29T14:53:34.023Z,110.50
2022-11-29T14:57:20.702Z,110.70
2022-11-29T15:01:09.606Z,114.10
2022-11-29T15:04:39.577Z,109.00
2022-11-29T15:08:14.444Z,111.30
2022-11-29T15:11:52.618Z,107.00
2022-11-29T15:15:39.080Z,107.10
2022-11-29T15:19:21.071Z,104.50
2022-11-29T15:22:53.360Z,110.20
2022-11-29T15:26:22.341Z,108.30
2022-11-29T15:29:49.235Z,109.80
2022-11-29T15:33:22.487Z,111.20
2022-11-29T15:36:49.123Z,118.90
2022-11-29T15:40:18.499Z,110.50
2022-11-29T15:43:48.813Z,119.10
2022-11-29T15:47:23.894Z,113.40
2022-11-29T15:50:57.501Z,115.60
2022-11-29T15:54:31.785Z,107.20
2022-11-29T15:58:08.342Z,118.50
2022-11-29T16:01:37.284Z,113.70
2022-11-29T16:05:10.288Z,111.60
2022-11-29T16:08:42.833Z,121.40
2022-11-29T16:12:13.096Z,115.20
2022-11-29T16:15:41.520Z,109.40
2022-11-29T16:19:31.500Z,122.60
2022-11-29T16:23:13.029Z,120.90
2022-11-29T16:26:42.902Z,127.50
2022-11-29T16:30:22.356Z,111.40
2022-11-29T16:33:51.127Z,120.80
2022-11-29T16:37:21.527Z,116.40
2022-11-29T16:41:04.474Z,108.60
2022-11-29T16:45:02.214Z,118.60
2022-11-29T16:48:38.207Z,113.70
2022-11-29T16:52:24.306Z,122.50
2022-11-29T16:55:53.533Z,118.20
2022-11-29T16:59:26.505Z,113.60
2022-11-29T17:02:55.381Z,123.70
2022-11-29T17:06:25.311Z,123.00
2022-11-29T17:09:52.416Z,121.20
2022-11-29T17:13:19.217Z,133.90
2022-11-29T17:16:49.166Z,114.00
2022-11-29T17:20:16.794Z,117.40
2022-11-29T17:23:43.737Z,119.60
2022-11-29T17:27:10.979Z,115.00
2022-11-29T17:30:38.128Z,128.30
2022-11-29T17:34:05.061Z,121.10
2022-11-29T17:37:32.803Z,118.80
2022-11-29T17:40:59.425Z,118.40
2022-11-29T17:44:26.222Z,122.00
2022-11-29T17:47:53.428Z,133.60
2022-11-29T17:51:50.431Z,127.70
2022-11-29T17:55:11.983Z,111.20
2022-11-29T17:58:39.463Z,124.80
2022-11-29T18:02:06.171Z,126.80
2022-11-29T18:05:34.881Z,121.90
2022-11-29T18:09:03.707Z,142.50
2022-11-29T18:12:30.408Z,139.90
2022-11-29T18:16:02.222Z,135.00
2022-11-29T18:19:29.923Z,124.10
2022-11-29T18:22:56.624Z,125.10
2022-11-29T18:26:25.369Z,130.70
2022-11-29T18:29:52.211Z,121.80
2022-11-29T18:33:18.846Z,122.60
2022-11-29T18:36:47.698Z,127.10
2022-11-29T18:40:16.057Z,122.60
2022-11-29T18:43:43.261Z,123.10
2022-11-29T18:47:09.949Z,131.30
2022-11-29T18:50:36.734Z,127.50
2022-11-29T18:54:04.196Z,131.60
2022-11-29T18:57:31.382Z,139.40
2022-11-29T19:01:05.415Z,136.80
2022-11-29T19:04:32.521Z,128.00
2022-11-29T19:07:59.534Z,140.50
2022-11-29T19:11:29.447Z,127.50
2022-11-29T19:14:56.478Z,122.40
2022-11-29T19:18:24.263Z,130.70
2022-11-29T19:21:51.182Z,133.10
2022-11-29T19:25:18.363Z,111.00
2022-11-29T19:28:46.619Z,130.50
2022-11-29T19:32:13.542Z,120.50
2022-11-29T19:35:43.532Z,129.00
2022-11-29T19:39:11.152Z,124.60
2022-11-29T19:42:37.817Z,116.40
2022-11-29T19:46:11.182Z,132.40
2022-11-29T19:49:43.483Z,127.80
2022-11-29T19:53:13.007Z,119.00
2022-11-29T19:56:40.387Z,120.40
2022-11-29T20:00:09.712Z,132.30
2022-11-29T20:03:40.333Z,113.40
2022-11-29T20:07:07.276Z,125.60
2022-11-29T20:10:34.426Z,136.70
2022-11-29T20:14:02.972Z,139.00
2022-11-29T20:17:29.846Z,134.40
2022-11-29T20:20:56.517Z,136.80
2022-11-29T20:24:23.355Z,128.10
2022-11-29T20:27:51.059Z,128.10
2022-11-29T20:31:21.336Z,133.00
2022-11-29T20:34:49.893Z,140.40
2022-11-29T20:38:32.277Z,129.80
2022-11-29T20:42:18.687Z,135.20
2022-11-29T20:45:46.859Z,140.10
2022-11-29T20:49:17.309Z,132.20
2022-11-29T20:52:50.103Z,124.80
2022-11-29T20:56:17.117Z,135.50
2022-11-29T20:59:44.387Z,133.60
2022-11-29T21:03:15.755Z,129.00
2022-11-29T21:06:42.850Z,143.00
2022-11-29T21:10:11.624Z,134.50
2022-11-29T21:13:41.258Z,136.10
2022-11-29T21:20:35.046Z,131.00
2022-11-29T21:24:08.767Z,141.20
2022-11-29T21:27:37.961Z,135.10
2022-11-29T21:31:06.320Z,123.20
2022-11-29T21:34:34.067Z,142.00
2022-11-29T21:38:02.840Z,127.20
2022-11-29T21:41:29.546Z,130.30
2022-11-29T21:44:56.184Z,143.40
2022-11-29T21:48:39.162Z,129.40
2022-11-29T21:52:06.970Z,138.90
2022-11-29T21:55:33.621Z,141.60
2022-11-29T21:59:00.199Z,132.10
2022-11-29T22:02:27.199Z,133.20
2022-11-29T22:05:54.570Z,137.30
2022-11-29T22:09:21.624Z,135.30
2022-11-29T22:12:52.316Z,147.70
2022-11-29T22:16:19.374Z,142.10
2022-11-29T22:19:46.224Z,150.50
2022-11-29T22:23:13.429Z,143.00
2022-11-29T22:26:40.903Z,134.00
2022-11-29T22:30:09.754Z,128.80
2022-11-29T22:33:37.560Z,127.30
2022-11-29T22:37:04.318Z,135.20
2022-11-29T22:40:31.264Z,138.00
2022-11-29T22:43:58.209Z,138.00
2022-11-29T22:47:25.256Z,129.70
2022-11-29T22:50:51.892Z,142.20
2022-11-29T22:54:18.639Z,136.60
2022-11-29T22:57:45.645Z,134.10
2022-11-29T23:01:15.131Z,140.80
2022-11-29T23:08:07.603Z,123.30
2022-11-29T23:11:35.082Z,136.70
2022-11-29T23:15:02.935Z,132.10
2022-11-29T23:18:29.782Z,128.90
2022-11-29T23:21:56.585Z,130.70
2022-11-29T23:25:23.247Z,130.10
2022-11-29T23:28:50.704Z,142.10
2022-11-29T23:32:17.377Z,120.90
2022-11-29T23:35:44.295Z,133.70
2022-11-29T23:39:11.506Z,122.00
2022-11-29T23:42:38.142Z,123.70
2022-11-29T23:46:10.020Z,145.00
2022-11-29T23:49:39.921Z,137.70
2022-11-29T23:53:06.979Z,140.30
